sensor_id;sensor_type;location;lat;lon;timestamp;temperature;humidity
40434;DHT22;26146;51.114;5.654;2023-02-24T00:01:21;7.40;99.90
40434;DHT22;26146;51.114;5.654;2023-02-24T00:05:25;7.30;99.90
40434;DHT22;26146;51.114;5.654;2023-02-24T00:09:28;7.30;99.90
40434;DHT22;26146;51.114;5.654;2023-02-24T00:13:29;7.20;99.90
40434;DHT22;26146;51.114;5.654;2023-02-24T00:17:31;7.10;99.90
40434;DHT22;26146;51.114;5.654;2023-02-24T00:21:33;7.10;99.90
40434;DHT22;26146;51.114;5.654;2023-02-24T00:25:34;7.30;99.90
40434;DHT22;26146;51.114;5.654;2023-02-24T00:29:35;7.30;99.90
40434;DHT22;26146;51.114;5.654;2023-02-24T00:33:44;7.20;99.90
40434;DHT22;26146;51.114;5.654;2023-02-24T00:37:47;7.10;99.90
40434;DHT22;26146;51.114;5.654;2023-02-24T00:41:50;7.10;99.90
40434;DHT22;26146;51.114;5.654;2023-02-24T00:45:52;7.20;99.90
40434;DHT22;26146;51.114;5.654;2023-02-24T00:49:53;7.20;99.90
40434;DHT22;26146;51.114;5.654;2023-02-24T00:53:58;7.20;99.90
40434;DHT22;26146;51.114;5.654;2023-02-24T00:57:59;7.10;99.90
40434;DHT22;26146;51.114;5.654;2023-02-24T01:02:00;7.10;99.90
40434;DHT22;26146;51.114;5.654;2023-02-24T01:06:02;7.10;99.90
40434;DHT22;26146;51.114;5.654;2023-02-24T01:10:04;7.00;99.90
40434;DHT22;26146;51.114;5.654;2023-02-24T01:14:10;7.10;99.90
40434;DHT22;26146;51.114;5.654;2023-02-24T01:18:12;6.90;99.90
40434;DHT22;26146;51.114;5.654;2023-02-24T01:22:16;6.90;99.90
40434;DHT22;26146;51.114;5.654;2023-02-24T01:26:18;6.90;99.90
40434;DHT22;26146;51.114;5.654;2023-02-24T01:30:19;6.90;99.90
40434;DHT22;26146;51.114;5.654;2023-02-24T01:34:20;6.70;99.90
40434;DHT22;26146;51.114;5.654;2023-02-24T01:38:21;6.60;99.90
40434;DHT22;26146;51.114;5.654;2023-02-24T01:42:23;6.60;99.90
40434;DHT22;26146;51.114;5.654;2023-02-24T01:46:25;6.70;99.90
40434;DHT22;26146;51.114;5.654;2023-02-24T01:50:27;6.60;99.90
40434;DHT22;26146;51.114;5.654;2023-02-24T01:54:34;6.50;99.90
40434;DHT22;26146;51.114;5.654;2023-02-24T01:58:39;6.40;99.90
40434;DHT22;26146;51.114;5.654;2023-02-24T02:02:43;6.60;99.90
40434;DHT22;26146;51.114;5.654;2023-02-24T02:06:46;6.40;99.90
40434;DHT22;26146;51.114;5.654;2023-02-24T02:10:48;6.60;99.90
40434;DHT22;26146;51.114;5.654;2023-02-24T02:14:55;6.40;99.90
40434;DHT22;26146;51.114;5.654;2023-02-24T02:23:57;6.30;99.90
40434;DHT22;26146;51.114;5.654;2023-02-24T02:28:24;6.10;99.90
40434;DHT22;26146;51.114;5.654;2023-02-24T02:49:54;6.50;99.90
40434;DHT22;26146;51.114;5.654;2023-02-24T02:54:04;6.50;99.90
40434;DHT22;26146;51.114;5.654;2023-02-24T02:58:14;6.50;99.90
40434;DHT22;26146;51.114;5.654;2023-02-24T03:02:21;6.60;99.90
40434;DHT22;26146;51.114;5.654;2023-02-24T03:06:39;6.60;99.90
40434;DHT22;26146;51.114;5.654;2023-02-24T03:10:45;6.60;99.90
40434;DHT22;26146;51.114;5.654;2023-02-24T03:14:55;6.70;99.90
40434;DHT22;26146;51.114;5.654;2023-02-24T03:19:03;6.70;99.90
40434;DHT22;26146;51.114;5.654;2023-02-24T03:23:17;6.70;99.90
40434;DHT22;26146;51.114;5.654;2023-02-24T03:27:34;6.80;99.90
40434;DHT22;26146;51.114;5.654;2023-02-24T03:32:07;6.80;99.90
40434;DHT22;26146;51.114;5.654;2023-02-24T03:36:11;6.70;99.90
40434;DHT22;26146;51.114;5.654;2023-02-24T03:40:15;6.70;99.90
40434;DHT22;26146;51.114;5.654;2023-02-24T03:44:16;6.70;99.90
40434;DHT22;26146;51.114;5.654;2023-02-24T03:48:17;6.70;99.90
40434;DHT22;26146;51.114;5.654;2023-02-24T03:52:47;6.60;99.90
40434;DHT22;26146;51.114;5.654;2023-02-24T03:57:12;6.60;99.90
40434;DHT22;26146;51.114;5.654;2023-02-24T04:05:50;6.40;99.90
40434;DHT22;26146;51.114;5.654;2023-02-24T04:10:06;6.50;99.90
40434;DHT22;26146;51.114;5.654;2023-02-24T04:14:19;6.50;99.90
40434;DHT22;26146;51.114;5.654;2023-02-24T04:18:29;6.50;99.90
40434;DHT22;26146;51.114;5.654;2023-02-24T04:22:32;6.60;99.90
40434;DHT22;26146;51.114;5.654;2023-02-24T04:26:36;6.50;99.90
40434;DHT22;26146;51.114;5.654;2023-02-24T04:30:43;6.50;99.90
40434;DHT22;26146;51.114;5.654;2023-02-24T04:34:45;6.50;99.90
40434;DHT22;26146;51.114;5.654;2023-02-24T04:38:46;6.50;99.90
40434;DHT22;26146;51.114;5.654;2023-02-24T04:42:52;6.50;99.90
40434;DHT22;26146;51.114;5.654;2023-02-24T04:46:53;6.50;99.90
40434;DHT22;26146;51.114;5.654;2023-02-24T04:50:55;6.50;99.90
40434;DHT22;26146;51.114;5.654;2023-02-24T04:55:02;6.40;99.90
40434;DHT22;26146;51.114;5.654;2023-02-24T04:59:10;6.50;99.90
40434;DHT22;26146;51.114;5.654;2023-02-24T05:03:11;6.50;99.90
40434;DHT22;26146;51.114;5.654;2023-02-24T05:07:12;6.40;99.90
40434;DHT22;26146;51.114;5.654;2023-02-24T05:11:16;6.30;99.90
40434;DHT22;26146;51.114;5.654;2023-02-24T05:15:18;6.40;99.90
40434;DHT22;26146;51.114;5.654;2023-02-24T05:19:19;6.40;99.90
40434;DHT22;26146;51.114;5.654;2023-02-24T05:23:41;6.30;99.90
40434;DHT22;26146;51.114;5.654;2023-02-24T05:27:45;6.20;99.90
40434;DHT22;26146;51.114;5.654;2023-02-24T05:31:47;6.30;99.90
40434;DHT22;26146;51.114;5.654;2023-02-24T05:35:48;6.30;99.90
40434;DHT22;26146;51.114;5.654;2023-02-24T05:39:57;6.30;99.90
40434;DHT22;26146;51.114;5.654;2023-02-24T05:44:05;6.30;99.90
40434;DHT22;26146;51.114;5.654;2023-02-24T05:48:08;6.40;99.90
40434;DHT22;26146;51.114;5.654;2023-02-24T05:52:10;6.30;99.90
40434;DHT22;26146;51.114;5.654;2023-02-24T05:56:13;6.20;99.90
40434;DHT22;26146;51.114;5.654;2023-02-24T06:00:14;6.10;99.90
40434;DHT22;26146;51.114;5.654;2023-02-24T06:04:16;5.90;99.90
40434;DHT22;26146;51.114;5.654;2023-02-24T06:08:36;5.80;99.90
40434;DHT22;26146;51.114;5.654;2023-02-24T06:12:48;5.90;99.90
40434;DHT22;26146;51.114;5.654;2023-02-24T06:16:49;5.80;99.90
40434;DHT22;26146;51.114;5.654;2023-02-24T06:20:51;5.90;99.90
40434;DHT22;26146;51.114;5.654;2023-02-24T06:24:53;5.90;99.90
40434;DHT22;26146;51.114;5.654;2023-02-24T06:28:57;5.90;99.90
40434;DHT22;26146;51.114;5.654;2023-02-24T06:32:58;6.00;99.90
40434;DHT22;26146;51.114;5.654;2023-02-24T06:36:59;5.80;99.90
40434;DHT22;26146;51.114;5.654;2023-02-24T06:41:01;5.90;99.90
40434;DHT22;26146;51.114;5.654;2023-02-24T06:45:04;5.70;99.90
40434;DHT22;26146;51.114;5.654;2023-02-24T06:49:05;5.60;99.90
40434;DHT22;26146;51.114;5.654;2023-02-24T06:58:16;5.50;99.90
40434;DHT22;26146;51.114;5.654;2023-02-24T07:02:17;5.40;99.90
40434;DHT22;26146;51.114;5.654;2023-02-24T07:06:18;5.50;99.90
40434;DHT22;26146;51.114;5.654;2023-02-24T07:10:23;5.50;99.90
40434;DHT22;26146;51.114;5.654;2023-02-24T07:14:26;5.60;99.90
40434;DHT22;26146;51.114;5.654;2023-02-24T07:18:32;5.60;99.90
40434;DHT22;26146;51.114;5.654;2023-02-24T07:22:36;5.70;99.90
40434;DHT22;26146;51.114;5.654;2023-02-24T07:26:39;5.70;99.90
40434;DHT22;26146;51.114;5.654;2023-02-24T07:30:44;5.80;99.90
40434;DHT22;26146;51.114;5.654;2023-02-24T07:34:45;5.90;99.90
40434;DHT22;26146;51.114;5.654;2023-02-24T07:38:46;5.70;99.90
40434;DHT22;26146;51.114;5.654;2023-02-24T07:42:51;5.80;99.90
40434;DHT22;26146;51.114;5.654;2023-02-24T07:46:55;6.10;99.90
40434;DHT22;26146;51.114;5.654;2023-02-24T07:51:01;6.10;99.90
40434;DHT22;26146;51.114;5.654;2023-02-24T07:55:06;6.00;99.90
40434;DHT22;26146;51.114;5.654;2023-02-24T07:59:08;5.90;99.90
40434;DHT22;26146;51.114;5.654;2023-02-24T08:03:15;6.20;99.90
40434;DHT22;26146;51.114;5.654;2023-02-24T08:07:19;6.30;99.90
40434;DHT22;26146;51.114;5.654;2023-02-24T08:11:30;6.30;99.90
40434;DHT22;26146;51.114;5.654;2023-02-24T08:15:35;6.40;99.90
40434;DHT22;26146;51.114;5.654;2023-02-24T08:19:36;6.40;99.90
40434;DHT22;26146;51.114;5.654;2023-02-24T08:23:43;6.40;99.90
40434;DHT22;26146;51.114;5.654;2023-02-24T08:27:50;6.50;99.90
40434;DHT22;26146;51.114;5.654;2023-02-24T08:31:57;6.80;99.90
40434;DHT22;26146;51.114;5.654;2023-02-24T08:35:59;6.90;99.90
40434;DHT22;26146;51.114;5.654;2023-02-24T08:40:03;7.00;99.90
40434;DHT22;26146;51.114;5.654;2023-02-24T08:44:07;6.90;99.90
40434;DHT22;26146;51.114;5.654;2023-02-24T08:48:14;7.10;99.90
40434;DHT22;26146;51.114;5.654;2023-02-24T08:52:18;7.20;99.90
40434;DHT22;26146;51.114;5.654;2023-02-24T08:56:23;7.30;99.90
40434;DHT22;26146;51.114;5.654;2023-02-24T09:00:24;7.60;99.90
40434;DHT22;26146;51.114;5.654;2023-02-24T09:04:48;7.70;99.90
40434;DHT22;26146;51.114;5.654;2023-02-24T09:08:50;7.40;99.90
40434;DHT22;26146;51.114;5.654;2023-02-24T09:13:11;7.30;99.90
40434;DHT22;26146;51.114;5.654;2023-02-24T09:17:13;7.60;99.90
40434;DHT22;26146;51.114;5.654;2023-02-24T09:21:14;7.80;99.90
40434;DHT22;26146;51.114;5.654;2023-02-24T09:25:37;8.00;99.90
40434;DHT22;26146;51.114;5.654;2023-02-24T09:29:43;8.20;99.90
40434;DHT22;26146;51.114;5.654;2023-02-24T09:33:50;8.30;99.90
40434;DHT22;26146;51.114;5.654;2023-02-24T09:37:51;8.50;99.90
40434;DHT22;26146;51.114;5.654;2023-02-24T09:41:57;8.40;99.90
40434;DHT22;26146;51.114;5.654;2023-02-24T09:46:06;8.50;99.90
40434;DHT22;26146;51.114;5.654;2023-02-24T09:54:23;8.60;99.90
40434;DHT22;26146;51.114;5.654;2023-02-24T10:02:43;8.20;99.90
40434;DHT22;26146;51.114;5.654;2023-02-24T10:06:51;8.40;99.90
40434;DHT22;26146;51.114;5.654;2023-02-24T10:10:54;8.30;99.90
40434;DHT22;26146;51.114;5.654;2023-02-24T10:15:14;8.50;99.90
40434;DHT22;26146;51.114;5.654;2023-02-24T10:19:23;8.20;99.90
40434;DHT22;26146;51.114;5.654;2023-02-24T10:23:53;8.10;99.90
40434;DHT22;26146;51.114;5.654;2023-02-24T10:32:25;7.90;99.90
40434;DHT22;26146;51.114;5.654;2023-02-24T10:36:34;8.20;99.90
40434;DHT22;26146;51.114;5.654;2023-02-24T10:40:52;8.20;99.90
40434;DHT22;26146;51.114;5.654;2023-02-24T10:49:23;8.20;99.90
40434;DHT22;26146;51.114;5.654;2023-02-24T10:53:26;8.20;99.90
40434;DHT22;26146;51.114;5.654;2023-02-24T10:57:28;8.40;99.90
40434;DHT22;26146;51.114;5.654;2023-02-24T11:06:41;8.70;99.90
40434;DHT22;26146;51.114;5.654;2023-02-24T11:10:57;8.60;99.90
40434;DHT22;26146;51.114;5.654;2023-02-24T11:15:29;8.60;99.90
40434;DHT22;26146;51.114;5.654;2023-02-24T11:20:06;8.40;99.90
40434;DHT22;26146;51.114;5.654;2023-02-24T11:24:17;8.70;99.90
40434;DHT22;26146;51.114;5.654;2023-02-24T11:28:37;8.40;99.90
40434;DHT22;26146;51.114;5.654;2023-02-24T11:37:25;8.30;99.90
40434;DHT22;26146;51.114;5.654;2023-02-24T11:41:34;8.70;99.90
40434;DHT22;26146;51.114;5.654;2023-02-24T11:45:49;9.20;99.90
40434;DHT22;26146;51.114;5.654;2023-02-24T11:54:21;9.30;99.90
40434;DHT22;26146;51.114;5.654;2023-02-24T12:07:00;9.50;99.90
40434;DHT22;26146;51.114;5.654;2023-02-24T12:11:32;9.40;99.90
40434;DHT22;26146;51.114;5.654;2023-02-24T12:15:49;9.50;99.90
40434;DHT22;26146;51.114;5.654;2023-02-24T12:23:58;9.30;99.90
40434;DHT22;26146;51.114;5.654;2023-02-24T12:28:18;8.70;99.90
40434;DHT22;26146;51.114;5.654;2023-02-24T12:58:41;8.80;99.90
40434;DHT22;26146;51.114;5.654;2023-02-24T13:03:04;8.60;99.90
40434;DHT22;26146;51.114;5.654;2023-02-24T13:15:27;8.50;99.90
40434;DHT22;26146;51.114;5.654;2023-02-24T13:19:30;8.60;99.90
40434;DHT22;26146;51.114;5.654;2023-02-24T13:23:32;8.40;99.90
40434;DHT22;26146;51.114;5.654;2023-02-24T13:27:34;8.20;99.90
40434;DHT22;26146;51.114;5.654;2023-02-24T13:31:42;7.80;99.90
40434;DHT22;26146;51.114;5.654;2023-02-24T13:35:46;7.70;99.90
40434;DHT22;26146;51.114;5.654;2023-02-24T13:39:47;7.70;99.90
40434;DHT22;26146;51.114;5.654;2023-02-24T14:01:22;7.80;99.90
40434;DHT22;26146;51.114;5.654;2023-02-24T14:05:33;7.80;99.90
40434;DHT22;26146;51.114;5.654;2023-02-24T14:09:44;7.90;99.90
40434;DHT22;26146;51.114;5.654;2023-02-24T14:13:49;7.80;99.90
40434;DHT22;26146;51.114;5.654;2023-02-24T14:18:02;7.60;99.90
40434;DHT22;26146;51.114;5.654;2023-02-24T14:22:03;7.60;99.90
40434;DHT22;26146;51.114;5.654;2023-02-24T14:26:12;7.70;99.90
40434;DHT22;26146;51.114;5.654;2023-02-24T14:34:27;7.50;99.90
40434;DHT22;26146;51.114;5.654;2023-02-24T14:38:35;7.50;99.90
40434;DHT22;26146;51.114;5.654;2023-02-24T14:42:46;7.60;99.90
40434;DHT22;26146;51.114;5.654;2023-02-24T14:46:53;7.80;99.90
40434;DHT22;26146;51.114;5.654;2023-02-24T14:55:21;7.80;99.90
40434;DHT22;26146;51.114;5.654;2023-02-24T15:07:33;7.60;99.90
40434;DHT22;26146;51.114;5.654;2023-02-24T15:11:34;7.70;99.90
40434;DHT22;26146;51.114;5.654;2023-02-24T15:15:37;7.70;99.90
40434;DHT22;26146;51.114;5.654;2023-02-24T15:19:42;7.50;99.90
40434;DHT22;26146;51.114;5.654;2023-02-24T15:23:47;7.50;99.90
40434;DHT22;26146;51.114;5.654;2023-02-24T15:27:56;7.70;99.90
40434;DHT22;26146;51.114;5.654;2023-02-24T15:31:59;7.90;99.90
40434;DHT22;26146;51.114;5.654;2023-02-24T15:36:18;7.80;99.90
40434;DHT22;26146;51.114;5.654;2023-02-24T15:40:25;8.20;99.90
40434;DHT22;26146;51.114;5.654;2023-02-24T15:44:29;8.50;99.90
40434;DHT22;26146;51.114;5.654;2023-02-24T15:48:31;8.50;99.90
40434;DHT22;26146;51.114;5.654;2023-02-24T15:52:35;8.40;99.90
40434;DHT22;26146;51.114;5.654;2023-02-24T15:56:38;8.10;99.90
40434;DHT22;26146;51.114;5.654;2023-02-24T16:00:40;8.10;99.90
40434;DHT22;26146;51.114;5.654;2023-02-24T16:04:41;8.00;99.90
40434;DHT22;26146;51.114;5.654;2023-02-24T16:08:45;8.00;99.90
40434;DHT22;26146;51.114;5.654;2023-02-24T16:12:55;7.90;99.90
40434;DHT22;26146;51.114;5.654;2023-02-24T16:16:57;7.70;99.90
40434;DHT22;26146;51.114;5.654;2023-02-24T16:20:58;7.60;99.90
40434;DHT22;26146;51.114;5.654;2023-02-24T16:25:00;7.50;99.90
40434;DHT22;26146;51.114;5.654;2023-02-24T16:29:01;7.40;99.90
40434;DHT22;26146;51.114;5.654;2023-02-24T16:33:02;7.40;99.90
40434;DHT22;26146;51.114;5.654;2023-02-24T16:37:21;7.30;99.90
40434;DHT22;26146;51.114;5.654;2023-02-24T16:41:23;7.40;99.90
40434;DHT22;26146;51.114;5.654;2023-02-24T16:45:28;7.40;99.90
40434;DHT22;26146;51.114;5.654;2023-02-24T16:49:29;7.40;99.90
40434;DHT22;26146;51.114;5.654;2023-02-24T16:53:33;7.50;99.90
40434;DHT22;26146;51.114;5.654;2023-02-24T16:57:34;7.60;99.90
40434;DHT22;26146;51.114;5.654;2023-02-24T17:01:35;7.50;99.90
40434;DHT22;26146;51.114;5.654;2023-02-24T17:05:36;7.40;99.90
40434;DHT22;26146;51.114;5.654;2023-02-24T17:09:36;7.20;99.90
40434;DHT22;26146;51.114;5.654;2023-02-24T17:13:37;7.10;99.90
40434;DHT22;26146;51.114;5.654;2023-02-24T17:17:38;7.20;99.90
40434;DHT22;26146;51.114;5.654;2023-02-24T17:21:42;7.20;99.90
40434;DHT22;26146;51.114;5.654;2023-02-24T17:25:52;7.10;99.90
40434;DHT22;26146;51.114;5.654;2023-02-24T17:29:53;7.00;99.90
40434;DHT22;26146;51.114;5.654;2023-02-24T17:33:54;6.90;99.90
40434;DHT22;26146;51.114;5.654;2023-02-24T17:37:55;6.70;99.90
40434;DHT22;26146;51.114;5.654;2023-02-24T17:41:56;6.60;99.90
40434;DHT22;26146;51.114;5.654;2023-02-24T17:46:00;6.50;99.90
40434;DHT22;26146;51.114;5.654;2023-02-24T17:50:02;6.50;99.90
40434;DHT22;26146;51.114;5.654;2023-02-24T17:54:04;6.60;99.90
40434;DHT22;26146;51.114;5.654;2023-02-24T17:58:08;6.70;99.90
40434;DHT22;26146;51.114;5.654;2023-02-24T18:02:11;6.70;99.90
40434;DHT22;26146;51.114;5.654;2023-02-24T18:06:12;6.70;99.90
40434;DHT22;26146;51.114;5.654;2023-02-24T18:10:13;6.80;99.90
40434;DHT22;26146;51.114;5.654;2023-02-24T18:14:14;6.70;99.90
40434;DHT22;26146;51.114;5.654;2023-02-24T18:18:15;6.60;99.90
40434;DHT22;26146;51.114;5.654;2023-02-24T18:22:18;6.40;99.90
40434;DHT22;26146;51.114;5.654;2023-02-24T18:26:20;6.50;99.90
40434;DHT22;26146;51.114;5.654;2023-02-24T18:30:21;6.50;99.90
40434;DHT22;26146;51.114;5.654;2023-02-24T18:34:22;6.60;99.90
40434;DHT22;26146;51.114;5.654;2023-02-24T18:38:24;6.70;99.90
40434;DHT22;26146;51.114;5.654;2023-02-24T18:42:30;6.70;99.90
40434;DHT22;26146;51.114;5.654;2023-02-24T18:46:31;6.80;99.90
40434;DHT22;26146;51.114;5.654;2023-02-24T18:50:32;6.90;99.90
40434;DHT22;26146;51.114;5.654;2023-02-24T18:54:33;6.90;99.90
40434;DHT22;26146;51.114;5.654;2023-02-24T18:58:35;6.90;99.90
40434;DHT22;26146;51.114;5.654;2023-02-24T19:02:39;6.80;99.90
40434;DHT22;26146;51.114;5.654;2023-02-24T19:06:40;6.80;99.90
40434;DHT22;26146;51.114;5.654;2023-02-24T19:10:43;6.80;99.90
40434;DHT22;26146;51.114;5.654;2023-02-24T19:14:50;6.70;99.90
40434;DHT22;26146;51.114;5.654;2023-02-24T19:18:53;6.70;99.90
40434;DHT22;26146;51.114;5.654;2023-02-24T19:22:55;6.50;99.90
40434;DHT22;26146;51.114;5.654;2023-02-24T19:26:56;6.40;99.90
40434;DHT22;26146;51.114;5.654;2023-02-24T19:30:57;6.30;99.90
40434;DHT22;26146;51.114;5.654;2023-02-24T19:34:58;6.50;99.90
40434;DHT22;26146;51.114;5.654;2023-02-24T19:38:59;6.50;99.90
40434;DHT22;26146;51.114;5.654;2023-02-24T19:43:00;6.60;99.90
40434;DHT22;26146;51.114;5.654;2023-02-24T19:47:04;6.50;99.90
40434;DHT22;26146;51.114;5.654;2023-02-24T19:55:09;6.30;99.90
40434;DHT22;26146;51.114;5.654;2023-02-24T19:59:10;6.10;99.90
40434;DHT22;26146;51.114;5.654;2023-02-24T20:03:11;6.10;99.90
40434;DHT22;26146;51.114;5.654;2023-02-24T20:07:12;6.10;99.90
40434;DHT22;26146;51.114;5.654;2023-02-24T20:11:13;6.30;99.90
40434;DHT22;26146;51.114;5.654;2023-02-24T20:15:14;6.30;99.90
40434;DHT22;26146;51.114;5.654;2023-02-24T20:19:15;6.20;99.90
40434;DHT22;26146;51.114;5.654;2023-02-24T20:23:17;6.10;99.90
40434;DHT22;26146;51.114;5.654;2023-02-24T20:27:18;6.10;99.90
40434;DHT22;26146;51.114;5.654;2023-02-24T20:31:19;6.20;99.90
40434;DHT22;26146;51.114;5.654;2023-02-24T20:35:21;6.40;99.90
40434;DHT22;26146;51.114;5.654;2023-02-24T20:39:25;6.30;99.90
40434;DHT22;26146;51.114;5.654;2023-02-24T20:43:27;6.20;99.90
40434;DHT22;26146;51.114;5.654;2023-02-24T20:47:28;5.90;99.90
40434;DHT22;26146;51.114;5.654;2023-02-24T20:51:30;5.90;99.90
40434;DHT22;26146;51.114;5.654;2023-02-24T20:55:31;5.90;99.90
40434;DHT22;26146;51.114;5.654;2023-02-24T20:59:32;5.70;99.90
40434;DHT22;26146;51.114;5.654;2023-02-24T21:03:33;5.50;99.90
40434;DHT22;26146;51.114;5.654;2023-02-24T21:07:34;5.50;99.90
40434;DHT22;26146;51.114;5.654;2023-02-24T21:11:38;5.50;99.90
40434;DHT22;26146;51.114;5.654;2023-02-24T21:15:39;5.40;99.90
40434;DHT22;26146;51.114;5.654;2023-02-24T21:19:40;5.30;99.90
40434;DHT22;26146;51.114;5.654;2023-02-24T21:23:41;5.30;99.90
40434;DHT22;26146;51.114;5.654;2023-02-24T21:27:43;5.30;99.90
40434;DHT22;26146;51.114;5.654;2023-02-24T21:31:44;5.40;99.90
40434;DHT22;26146;51.114;5.654;2023-02-24T21:35:56;5.60;99.90
40434;DHT22;26146;51.114;5.654;2023-02-24T21:39:57;5.50;99.90
40434;DHT22;26146;51.114;5.654;2023-02-24T21:43:58;5.50;99.90
40434;DHT22;26146;51.114;5.654;2023-02-24T21:48:00;5.50;99.90
40434;DHT22;26146;51.114;5.654;2023-02-24T21:52:01;5.50;99.90
40434;DHT22;26146;51.114;5.654;2023-02-24T22:00:13;5.50;99.90
40434;DHT22;26146;51.114;5.654;2023-02-24T22:04:20;5.30;99.90
40434;DHT22;26146;51.114;5.654;2023-02-24T22:08:21;5.10;99.90
40434;DHT22;26146;51.114;5.654;2023-02-24T22:12:22;5.00;99.90
40434;DHT22;26146;51.114;5.654;2023-02-24T22:16:26;5.10;99.90
40434;DHT22;26146;51.114;5.654;2023-02-24T22:20:29;5.00;99.90
40434;DHT22;26146;51.114;5.654;2023-02-24T22:24:30;4.90;99.90
40434;DHT22;26146;51.114;5.654;2023-02-24T22:28:36;4.90;99.90
40434;DHT22;26146;51.114;5.654;2023-02-24T22:32:40;4.80;99.90
40434;DHT22;26146;51.114;5.654;2023-02-24T22:36:41;4.90;99.90
40434;DHT22;26146;51.114;5.654;2023-02-24T22:40:42;4.80;99.90
40434;DHT22;26146;51.114;5.654;2023-02-24T22:44:45;4.80;99.90
40434;DHT22;26146;51.114;5.654;2023-02-24T22:48:46;5.00;99.90
40434;DHT22;26146;51.114;5.654;2023-02-24T22:52:47;5.00;99.90
40434;DHT22;26146;51.114;5.654;2023-02-24T22:56:48;5.00;99.90
40434;DHT22;26146;51.114;5.654;2023-02-24T23:00:50;5.10;99.90
40434;DHT22;26146;51.114;5.654;2023-02-24T23:04:53;5.00;99.90
40434;DHT22;26146;51.114;5.654;2023-02-24T23:08:55;5.00;99.90
40434;DHT22;26146;51.114;5.654;2023-02-24T23:12:56;5.10;99.90
40434;DHT22;26146;51.114;5.654;2023-02-24T23:16:57;5.10;99.90
40434;DHT22;26146;51.114;5.654;2023-02-24T23:21:06;5.20;99.90
40434;DHT22;26146;51.114;5.654;2023-02-24T23:25:08;5.20;99.90
40434;DHT22;26146;51.114;5.654;2023-02-24T23:29:11;5.20;99.90
40434;DHT22;26146;51.114;5.654;2023-02-24T23:33:13;5.20;99.90
40434;DHT22;26146;51.114;5.654;2023-02-24T23:37:14;5.20;99.90
40434;DHT22;26146;51.114;5.654;2023-02-24T23:41:16;5.30;99.90
40434;DHT22;26146;51.114;5.654;2023-02-24T23:45:17;5.20;99.90
40434;DHT22;26146;51.114;5.654;2023-02-24T23:49:18;5.20;99.90
40434;DHT22;26146;51.114;5.654;2023-02-24T23:53:19;5.20;99.90
40434;DHT22;26146;51.114;5.654;2023-02-24T23:57:20;5.10;99.90
